»·PEaware :: N6794H L52-L88

N6794H :: L52-L88

FLIGHT INFORMATION

Flight Status: Arrived
Operator: Privately registered:
United States
More flights under this callsign
Pilot: Austin B. (17780)
Aircraft: CESSNA 172 SKYHAWK
(C172)
More flights by this aircraft type
Origin: L52 Oceano Co
United States
Destination: L88 New Cuyama
United States
More flights between these airports :: More routes between these airports
Route: FLW
File this flight plan on PilotEdge
Remarks: New to pilot edge / CAT-01
Altitude:
(Current/Filed)
7,500ft
Speed:
(Current/Filed)
110kts
Departed: 02-Jan-18 08:41 PM
Arrived: 02-Jan-18 09:16 PM
Distance/Time
Traveled:
47nm/0:34
Distance/Time
To Go:
Arrived

Flight Plot

Page will automatically refresh every two minutes.


Map Options




Map Legend


Flown Route
Filed Route
Departure Airport
Arrival Airport
Navaid (VOR, NDB)
Fix

Horizontal Profiles

Position Reports

Time Latitude Longitude Heading Altitude Ground
Speed
02-Jan-18 20:36 35.103359 -120.624562 211 18ft 0kts
02-Jan-18 20:37 35.103359 -120.624562 210 18ft 0kts
02-Jan-18 20:38 35.103359 -120.624562 210 18ft 0kts
02-Jan-18 20:39 35.103359 -120.624562 210 18ft 0kts
02-Jan-18 20:40 35.103359 -120.624562 210 18ft 0kts
02-Jan-18 20:41 35.102889 -120.623816 125 18ft 3kts
02-Jan-18 20:42 35.101958 -120.622155 153 18ft 0kts
02-Jan-18 20:43 35.101567 -120.622338 209 18ft 4kts
02-Jan-18 20:44 35.100296 -120.620907 127 18ft 14kts
02-Jan-18 20:45 35.099593 -120.619562 118 18ft 0kts
02-Jan-18 20:46 35.099985 -120.619301 302 18ft 0kts
02-Jan-18 20:47 35.107080 -120.633671 301 552ft 74kts
02-Jan-18 20:48 35.123189 -120.647430 43 1487ft 83kts
02-Jan-18 20:49 35.122777 -120.621429 100 2503ft 77kts
02-Jan-18 20:50 35.118978 -120.596003 100 3397ft 83kts
02-Jan-18 20:51 35.114185 -120.566135 100 4235ft 91kts
02-Jan-18 20:52 35.109336 -120.536803 100 5127ft 85kts
02-Jan-18 20:53 35.104820 -120.509635 100 6001ft 79kts
02-Jan-18 20:54 35.100857 -120.483251 92 6796ft 78kts
02-Jan-18 20:55 35.099772 -120.452395 92 6772ft 102kts
02-Jan-18 20:56 35.099012 -120.417260 91 6517ft 99kts
02-Jan-18 20:57 35.098589 -120.382613 90 6518ft 104kts
02-Jan-18 20:58 35.098206 -120.346730 91 6518ft 106kts
02-Jan-18 20:59 35.097843 -120.310597 91 6519ft 107kts
02-Jan-18 21:00 35.098019 -120.274382 88 6522ft 107kts
02-Jan-18 21:01 35.098058 -120.238001 89 6522ft 107kts
02-Jan-18 21:02 35.097670 -120.201581 89 6522ft 107kts
02-Jan-18 21:03 35.097261 -120.165133 89 6522ft 107kts
02-Jan-18 21:04 35.096845 -120.128700 89 6522ft 107kts
02-Jan-18 21:05 35.096420 -120.092386 89 6522ft 107kts
02-Jan-18 21:06 35.095983 -120.055993 89 6522ft 107kts
02-Jan-18 21:07 35.095536 -120.019654 89 6522ft 107kts
02-Jan-18 21:08 35.095078 -119.983344 89 6522ft 107kts
02-Jan-18 21:09 35.094609 -119.947005 89 6522ft 107kts
02-Jan-18 21:10 35.094130 -119.910686 89 6522ft 107kts
02-Jan-18 21:11 35.093639 -119.874311 89 6522ft 107kts
02-Jan-18 21:12 35.076162 -119.845314 132 6522ft 109kts
02-Jan-18 21:13 35.054425 -119.819353 133 6522ft 109kts
02-Jan-18 21:14 35.032535 -119.793540 133 6522ft 109kts
02-Jan-18 21:15 35.010484 -119.767607 133 6373ft 111kts
02-Jan-18 21:16 34.988191 -119.741442 133 5872ft 111kts
02-Jan-18 21:17 34.975168 -119.709551 100 5367ft 109kts
02-Jan-18 21:18 34.960984 -119.676625 117 4869ft 110kts
02-Jan-18 21:19 34.939748 -119.653757 163 4393ft 114kts
02-Jan-18 21:20 34.924279 -119.668986 333 3539ft 103kts
02-Jan-18 21:21 34.930724 -119.670540 8 2580ft 69kts
02-Jan-18 21:22 34.939527 -119.684530 297 2207ft 27kts
02-Jan-18 21:23 34.941872 -119.690281 299 2207ft 17kts
02-Jan-18 21:24 34.943558 -119.690729 199 2207ft 0kts
02-Jan-18 21:25 34.943555 -119.690730 197 2207ft 0kts
02-Jan-18 21:26 34.943555 -119.690730 197 2207ft 0kts

Navigation Log

Ident Type
Flight plan parsing failed, navigation log unavailable